Ideal, South Dakota
Current Conditions -  °F | °C
As of 10:53 AM on Friday 19 Dec 2014 (Local Time) from KICR Reporting Station
Clear Clear  
Wind Chill: 21°   Ceiling: Unl
Heat Index: 28°   Visibility: 10mi
Dew Point: 18°   Wind: 7mph
Humidity: 66%   Direction: 210°SSW
Pressure: 30.03"   Gusts: NA
Location:  43.54°N, 99.9°W
Report Text: KICR 191653Z AUTO 21006KT 10SM CLR M02/M08 A3003 RMK AO2 SLP195 T10221078
Loading
Personal Weather Stations






























Interactive Weather Map New forecast layout! Learn more

10-Day Weather Forecast

Advertisements
Track Severe Weather on mobile